TimeEDT,TemperatureF,Dew PointF,Humidity,Sea Level PressureIn,VisibilityMPH,Wind Direction,Wind SpeedMPH,Gust SpeedMPH,PrecipitationIn,Events,Conditions,WindDirDegrees,DateUTC
12:15 AM,57.2,44.6,63,30.24,10.0,NNW,4.6,-,N/A,,Clear,330,2013-03-15 04:15:00
12:35 AM,57.2,42.8,59,30.24,10.0,NNW,4.6,-,N/A,,Clear,340,2013-03-15 04:35:00
12:55 AM,57.2,42.8,59,30.24,10.0,North,4.6,-,N/A,,Clear,360,2013-03-15 04:55:00
1:15 AM,57.2,41.0,55,30.23,10.0,North,3.5,-,N/A,,Clear,350,2013-03-15 05:15:00
1:35 AM,53.6,44.6,72,30.23,10.0,WNW,4.6,-,N/A,,Clear,300,2013-03-15 05:35:00
2:15 AM,53.6,46.4,77,30.23,10.0,NNW,5.8,-,N/A,,Clear,330,2013-03-15 06:15:00
2:35 AM,53.6,44.6,72,30.22,10.0,NNW,5.8,-,N/A,,Clear,340,2013-03-15 06:35:00
2:55 AM,53.6,44.6,72,30.22,10.0,NNW,4.6,-,N/A,,Clear,340,2013-03-15 06:55:00
3:15 AM,53.6,44.6,72,30.22,10.0,NNW,5.8,-,N/A,,Clear,330,2013-03-15 07:15:00
3:35 AM,51.8,44.6,76,30.22,10.0,NNW,4.6,-,N/A,,Clear,330,2013-03-15 07:35:00
3:55 AM,51.8,44.6,76,30.22,10.0,NW,4.6,-,N/A,,Clear,320,2013-03-15 07:55:00
4:15 AM,51.8,44.6,76,30.21,10.0,NNW,5.8,-,N/A,,Clear,340,2013-03-15 08:15:00
4:35 AM,51.8,44.6,76,30.21,10.0,NNW,5.8,-,N/A,,Clear,340,2013-03-15 08:35:00
4:55 AM,51.8,44.6,76,30.22,10.0,NNW,5.8,-,N/A,,Clear,340,2013-03-15 08:55:00
5:15 AM,51.8,42.8,71,30.22,10.0,NNW,5.8,-,N/A,,Clear,330,2013-03-15 09:15:00
5:35 AM,51.8,44.6,76,30.23,10.0,NNW,4.6,-,N/A,,Clear,330,2013-03-15 09:35:00
5:55 AM,51.8,42.8,71,30.23,10.0,NW,4.6,-,N/A,,Clear,320,2013-03-15 09:55:00
6:15 AM,51.8,42.8,71,30.23,10.0,NW,5.8,-,N/A,,Clear,320,2013-03-15 10:15:00
7:47 AM,50.0,42.8,76,30.25,10.0,NNW,5.8,-,N/A,,Mostly Cloudy,330,2013-03-15 11:47:00
8:55 AM,55.4,44.6,67,30.27,10.0,NNW,8.1,-,N/A,,Scattered Clouds,330,2013-03-15 12:55:00
9:47 AM,59.0,44.6,59,30.28,10.0,NNW,8.1,-,N/A,,Scattered Clouds,340,2013-03-15 13:47:00
10:47 AM,62.6,44.6,52,30.28,10.0,NNW,8.1,-,N/A,,Partly Cloudy,340,2013-03-15 14:47:00
11:47 AM,64.4,46.4,52,30.28,10.0,North,8.1,-,N/A,,Partly Cloudy,350,2013-03-15 15:47:00
12:47 PM,66.2,46.4,49,30.26,10.0,North,13.8,17.3,N/A,,Clear,10,2013-03-15 16:47:00
1:47 PM,66.2,46.4,49,30.26,10.0,North,11.5,16.1,N/A,,Clear,10,2013-03-15 17:47:00
2:47 PM,66.2,46.4,49,30.23,10.0,North,11.5,17.3,N/A,,Clear,10,2013-03-15 18:47:00
3:47 PM,66.2,46.4,49,30.20,10.0,North,13.8,-,N/A,,Partly Cloudy,10,2013-03-15 19:47:00
4:47 PM,66.2,46.4,49,30.20,10.0,North,9.2,-,N/A,,Partly Cloudy,10,2013-03-15 20:47:00
5:47 PM,66.2,48.2,52,30.19,10.0,North,9.2,-,N/A,,Partly Cloudy,10,2013-03-15 21:47:00
6:47 PM,64.4,48.2,56,30.19,10.0,North,5.8,-,N/A,,Partly Cloudy,10,2013-03-15 22:47:00
8:15 PM,60.8,50.0,68,30.20,10.0,NNW,3.5,-,N/A,,Clear,340,2013-03-16 00:15:00
8:35 PM,60.8,50.0,68,30.20,10.0,North,3.5,-,N/A,,Clear,350,2013-03-16 00:35:00
8:55 PM,60.8,51.8,72,30.21,10.0,North,3.5,-,N/A,,Clear,360,2013-03-16 00:55:00
9:15 PM,57.2,50.0,77,30.21,10.0,Calm,Calm,-,N/A,,Clear,0,2013-03-16 01:15:00
9:35 PM,55.4,50.0,82,30.21,10.0,Calm,Calm,-,N/A,,Clear,0,2013-03-16 01:35:00
9:55 PM,55.4,51.8,88,30.22,10.0,Calm,Calm,-,N/A,,Clear,0,2013-03-16 01:55:00
10:15 PM,55.4,50.0,82,30.22,10.0,NW,3.5,-,N/A,,Clear,320,2013-03-16 02:15:00
10:35 PM,55.4,50.0,82,30.22,10.0,Calm,Calm,-,N/A,,Clear,0,2013-03-16 02:35:00
10:55 PM,53.6,50.0,88,30.21,10.0,Calm,Calm,-,N/A,,Clear,0,2013-03-16 02:55:00
11:15 PM,53.6,51.8,94,30.22,10.0,Calm,Calm,-,N/A,,Clear,0,2013-03-16 03:15:00
11:35 PM,53.6,50.0,88,30.22,10.0,Calm,Calm,-,N/A,,Clear,0,2013-03-16 03:35:00
11:55 PM,53.6,50.0,88,30.22,10.0,NNW,3.5,-,N/A,,Clear,340,2013-03-16 03:55:00